createdAt,value
2024-02-24T00:02:07.513Z,39.63
2024-02-24T00:04:35.824Z,44.42
2024-02-24T00:07:03.685Z,48.28
2024-02-24T00:09:31.772Z,38.70
2024-02-24T00:12:00.729Z,32.75
2024-02-24T00:14:28.792Z,50.25
2024-02-24T00:16:56.741Z,31.67
2024-02-24T00:19:26.105Z,34.10
2024-02-24T00:21:53.946Z,34.53
2024-02-24T00:24:22.261Z,31.08
2024-02-24T00:26:50.145Z,28.55
2024-02-24T00:29:18.260Z,28.83
2024-02-24T00:31:45.931Z,30.10
2024-02-24T00:34:14.182Z,30.33
2024-02-24T00:36:42.301Z,42.15
2024-02-24T00:39:10.586Z,47.72
2024-02-24T00:41:38.390Z,53.75
2024-02-24T00:44:07.023Z,53.65
2024-02-24T00:46:34.811Z,56.50
2024-02-24T00:49:03.164Z,51.30
2024-02-24T00:51:30.830Z,54.03
2024-02-24T00:53:58.881Z,48.90
2024-02-24T00:56:26.764Z,47.53
2024-02-24T00:58:55.013Z,45.50
2024-02-24T01:01:22.701Z,46.80
2024-02-24T01:03:50.786Z,46.40
2024-02-24T01:06:18.457Z,45.80
2024-02-24T01:08:46.520Z,45.40
2024-02-24T01:11:14.457Z,54.20
2024-02-24T01:13:44.181Z,42.65
2024-02-24T01:16:11.844Z,42.90
2024-02-24T01:18:39.937Z,35.30
2024-02-24T01:21:07.625Z,35.72
2024-02-24T01:23:35.641Z,31.93
2024-02-24T01:26:04.141Z,32.78
2024-02-24T01:28:32.344Z,49.50
2024-02-24T01:30:59.953Z,44.85
2024-02-24T01:33:28.236Z,38.00
2024-02-24T01:35:56.449Z,43.80
2024-02-24T01:38:24.715Z,34.25
2024-02-24T01:40:52.362Z,45.03
2024-02-24T01:43:28.474Z,60.40
2024-02-24T01:45:57.053Z,41.42
2024-02-24T01:48:25.519Z,33.17
2024-02-24T01:50:54.565Z,37.15
2024-02-24T01:53:23.999Z,50.63
2024-02-24T01:55:52.751Z,49.75
2024-02-24T01:58:22.224Z,38.00
2024-02-24T02:00:50.158Z,34.60
2024-02-24T02:03:18.220Z,43.08
2024-02-24T02:05:46.032Z,49.90
2024-02-24T02:08:14.328Z,57.08
2024-02-24T02:10:50.387Z,53.47
2024-02-24T02:13:19.257Z,43.67
2024-02-24T02:15:50.615Z,38.30
2024-02-24T02:18:18.806Z,35.67
2024-02-24T02:20:56.951Z,41.35
2024-02-24T02:23:24.868Z,40.38
2024-02-24T02:25:52.525Z,47.07
2024-02-24T02:28:20.631Z,48.95
2024-02-24T02:30:48.197Z,37.35
2024-02-24T02:33:16.423Z,48.08
2024-02-24T02:35:44.577Z,47.95
2024-02-24T02:38:12.567Z,41.63
2024-02-24T02:40:40.164Z,43.80
2024-02-24T02:43:08.509Z,41.38
2024-02-24T02:45:36.106Z,42.15
2024-02-24T02:48:04.719Z,40.17
2024-02-24T02:50:32.501Z,36.60
2024-02-24T02:53:00.551Z,42.15
2024-02-24T02:55:28.094Z,44.08
2024-02-24T02:57:56.423Z,45.92
2024-02-24T03:00:23.931Z,46.90
2024-02-24T03:02:52.055Z,48.20
2024-02-24T03:05:20.213Z,43.90
2024-02-24T03:07:48.153Z,42.33
2024-02-24T03:10:15.961Z,36.30
2024-02-24T03:12:44.017Z,41.95
2024-02-24T03:15:11.858Z,48.67
2024-02-24T03:17:39.910Z,46.90
2024-02-24T03:20:10.352Z,42.00
2024-02-24T03:22:39.792Z,46.03
2024-02-24T03:25:07.691Z,37.05
2024-02-24T03:27:36.102Z,35.93
2024-02-24T03:30:03.892Z,38.83
2024-02-24T03:32:31.994Z,47.30
2024-02-24T03:34:59.664Z,52.65
2024-02-24T03:37:27.680Z,42.85
2024-02-24T03:39:55.331Z,44.53
2024-02-24T03:42:23.270Z,42.67
2024-02-24T03:44:50.918Z,40.97
2024-02-24T03:47:18.934Z,41.20
2024-02-24T03:49:46.573Z,41.50
2024-02-24T03:52:14.586Z,44.53
2024-02-24T03:54:42.407Z,43.20
2024-02-24T03:57:12.665Z,42.50
2024-02-24T03:59:40.483Z,44.83
2024-02-24T04:02:08.511Z,45.38
2024-02-24T04:04:36.204Z,40.33
2024-02-24T04:07:04.161Z,41.63
2024-02-24T04:09:31.943Z,39.92
2024-02-24T04:12:00.081Z,37.50
2024-02-24T04:14:27.872Z,32.83
2024-02-24T04:16:57.227Z,38.60
2024-02-24T04:19:25.472Z,36.05
2024-02-24T04:21:53.532Z,39.17
2024-02-24T04:24:21.403Z,36.58
2024-02-24T04:26:49.364Z,36.55
2024-02-24T04:29:17.135Z,35.43
2024-02-24T04:31:45.269Z,41.63
2024-02-24T04:34:12.870Z,37.53
2024-02-24T04:36:42.658Z,35.08
2024-02-24T04:39:10.752Z,36.72
2024-02-24T04:41:38.861Z,54.10
2024-02-24T04:44:06.695Z,59.10
2024-02-24T04:46:35.830Z,62.28
2024-02-24T04:49:03.695Z,53.20
2024-02-24T04:51:31.954Z,43.75
2024-02-24T04:53:59.606Z,47.00
2024-02-24T04:56:27.747Z,49.95
2024-02-24T04:58:55.572Z,45.83
2024-02-24T05:01:23.807Z,47.45
2024-02-24T05:03:51.496Z,57.53
2024-02-24T05:06:19.867Z,48.00
2024-02-24T05:08:47.622Z,40.20
2024-02-24T05:11:15.876Z,37.83
2024-02-24T05:13:44.895Z,40.17
2024-02-24T05:16:12.842Z,39.35
2024-02-24T05:18:40.561Z,38.27
2024-02-24T05:21:08.640Z,38.65
2024-02-24T05:23:36.803Z,39.63
2024-02-24T05:26:05.741Z,36.30
2024-02-24T05:28:33.438Z,33.20
2024-02-24T05:31:01.189Z,39.60
2024-02-24T05:33:29.501Z,36.45
2024-02-24T05:35:57.689Z,38.65
2024-02-24T05:42:37.872Z,37.50
2024-02-24T05:45:06.484Z,32.00
2024-02-24T05:48:50.079Z,34.88
2024-02-24T05:51:19.918Z,41.00
2024-02-24T05:53:47.853Z,42.03
2024-02-24T05:56:17.365Z,43.20
2024-02-24T05:58:45.040Z,40.77
2024-02-24T06:01:13.264Z,43.50
2024-02-24T06:03:41.416Z,43.08
2024-02-24T06:06:09.857Z,49.45
2024-02-24T06:08:39.766Z,49.22
2024-02-24T06:11:08.944Z,43.13
2024-02-24T06:13:54.094Z,48.05
2024-02-24T06:16:22.328Z,52.95
2024-02-24T06:19:16.201Z,45.38
2024-02-24T06:21:44.400Z,45.22
2024-02-24T06:24:11.964Z,54.83
2024-02-24T06:26:41.356Z,46.28
2024-02-24T06:29:09.469Z,54.92
2024-02-24T06:31:37.825Z,59.17
2024-02-24T06:34:08.358Z,75.18
2024-02-24T06:36:37.049Z,66.03
2024-02-24T06:39:04.817Z,67.97
2024-02-24T06:41:33.151Z,75.15
2024-02-24T06:44:01.201Z,59.13
2024-02-24T06:46:29.348Z,63.60
2024-02-24T06:48:57.371Z,60.30
2024-02-24T06:51:25.669Z,102.70
2024-02-24T06:53:57.333Z,116.75
2024-02-24T06:56:25.671Z,112.63
2024-02-24T06:58:55.739Z,91.95
2024-02-24T07:01:24.255Z,74.23
2024-02-24T07:07:20.040Z,43.30
2024-02-24T07:09:49.466Z,40.47
2024-02-24T07:12:17.337Z,47.22
2024-02-24T07:14:47.587Z,52.80
2024-02-24T07:17:15.456Z,51.95
2024-02-24T07:19:44.251Z,70.82
2024-02-24T07:22:16.468Z,67.10
2024-02-24T07:24:44.962Z,77.95
2024-02-24T07:27:12.870Z,78.93
2024-02-24T07:29:41.082Z,64.55
2024-02-24T07:32:08.994Z,55.88
2024-02-24T07:34:37.357Z,56.67
2024-02-24T07:37:05.550Z,61.72
2024-02-24T07:39:33.866Z,71.63
2024-02-24T07:42:01.681Z,123.25
2024-02-24T07:44:29.944Z,93.40
2024-02-24T07:46:57.683Z,81.32
2024-02-24T07:49:26.100Z,104.50
2024-02-24T07:51:53.923Z,117.53
2024-02-24T07:54:22.282Z,87.10
2024-02-24T07:56:50.261Z,77.28
2024-02-24T07:59:18.505Z,74.47
2024-02-24T08:01:46.224Z,82.60
2024-02-24T08:04:16.431Z,67.10
2024-02-24T08:06:44.561Z,70.28
2024-02-24T08:09:12.746Z,73.28
2024-02-24T08:11:43.538Z,74.45
2024-02-24T08:14:12.257Z,87.07
2024-02-24T08:16:40.768Z,156.53
2024-02-24T08:19:09.008Z,144.70
2024-02-24T08:21:39.437Z,130.68
2024-02-24T08:24:11.366Z,90.13
2024-02-24T08:26:41.541Z,80.63
2024-02-24T08:29:11.494Z,64.90
2024-02-24T08:31:40.458Z,58.65
2024-02-24T08:34:09.033Z,59.50
2024-02-24T08:36:37.360Z,74.78
2024-02-24T08:39:06.014Z,116.60
2024-02-24T08:41:35.109Z,133.07
2024-02-24T08:44:04.167Z,95.75
2024-02-24T08:46:32.444Z,80.18
2024-02-24T08:49:00.851Z,85.25
2024-02-24T08:51:28.922Z,97.45
2024-02-24T08:53:57.743Z,120.00
2024-02-24T08:56:26.671Z,114.78
2024-02-24T08:58:55.193Z,98.50
2024-02-24T09:01:23.135Z,81.65
2024-02-24T09:03:52.252Z,92.47
2024-02-24T09:06:20.367Z,84.20
2024-02-24T09:08:48.703Z,81.22
2024-02-24T09:11:16.805Z,107.57
2024-02-24T09:13:48.760Z,74.03
2024-02-24T09:16:18.508Z,77.38
2024-02-24T09:18:46.920Z,89.77
2024-02-24T09:21:15.088Z,99.95
2024-02-24T09:23:43.273Z,92.05
2024-02-24T09:26:11.076Z,90.15
2024-02-24T09:28:40.241Z,108.13
2024-02-24T09:31:07.946Z,124.63
2024-02-24T09:33:37.475Z,169.13
2024-02-24T09:36:06.225Z,213.57
2024-02-24T09:38:34.704Z,261.23
2024-02-24T09:41:02.736Z,234.30
2024-02-24T09:43:31.007Z,188.20
2024-02-24T09:45:59.415Z,141.73
2024-02-24T09:48:29.911Z,77.97
2024-02-24T09:51:02.128Z,61.08
2024-02-24T09:53:30.772Z,42.13
2024-02-24T09:56:00.114Z,34.73
2024-02-24T09:58:34.526Z,37.10
2024-02-24T10:01:02.616Z,47.58
2024-02-24T10:03:31.666Z,44.33
2024-02-24T10:05:59.545Z,50.00
2024-02-24T10:08:27.746Z,36.80
2024-02-24T10:10:56.798Z,30.65
2024-02-24T10:13:25.446Z,31.48
2024-02-24T10:15:53.449Z,30.70
2024-02-24T10:18:22.972Z,36.70
2024-02-24T10:20:53.038Z,32.60
2024-02-24T10:23:21.549Z,35.70
2024-02-24T10:25:49.469Z,128.85
2024-02-24T10:28:21.896Z,42.65
2024-02-24T10:30:50.535Z,51.50
2024-02-24T10:33:54.821Z,32.88
2024-02-24T10:36:23.436Z,42.03
2024-02-24T10:38:55.765Z,58.22
2024-02-24T10:41:26.944Z,71.27
2024-02-24T10:44:09.778Z,80.07
2024-02-24T10:46:43.618Z,177.63
2024-02-24T10:49:13.126Z,102.55
2024-02-24T10:51:47.683Z,36.40
2024-02-24T10:54:21.302Z,35.37
2024-02-24T10:56:57.529Z,55.00
2024-02-24T10:59:30.023Z,36.55
2024-02-24T11:02:06.102Z,48.15
2024-02-24T11:04:38.476Z,41.25
2024-02-24T11:07:08.553Z,39.10
2024-02-24T11:09:41.274Z,42.58
2024-02-24T11:12:09.623Z,47.67
2024-02-24T11:14:42.674Z,41.47
2024-02-24T11:17:12.814Z,29.40
2024-02-24T11:19:50.329Z,26.80
2024-02-24T11:22:20.701Z,22.52
2024-02-24T11:25:05.383Z,24.88
2024-02-24T11:27:42.331Z,26.83
2024-02-24T11:30:36.047Z,27.70
2024-02-24T11:33:30.427Z,30.50
2024-02-24T11:36:02.095Z,31.90
2024-02-24T11:38:33.119Z,186.10
2024-02-24T11:41:09.368Z,49.67
2024-02-24T11:43:47.159Z,23.00
2024-02-24T11:46:15.293Z,5.63
2024-02-24T11:48:43.563Z,6.65
2024-02-24T11:51:13.628Z,10.35
2024-02-24T11:53:42.641Z,8.77
2024-02-24T11:56:16.802Z,43.95
2024-02-24T11:58:46.693Z,42.57
2024-02-24T12:01:16.672Z,25.88
2024-02-24T12:03:59.252Z,29.17
2024-02-24T12:06:28.986Z,21.70
2024-02-24T12:09:00.885Z,23.77
2024-02-24T12:11:29.490Z,9.23
2024-02-24T12:13:58.301Z,15.23
2024-02-24T12:16:26.813Z,5.10
2024-02-24T12:18:58.446Z,5.80
2024-02-24T12:21:29.783Z,6.25
2024-02-24T12:23:59.075Z,13.17
2024-02-24T12:26:29.727Z,18.95
2024-02-24T12:28:57.987Z,10.80
2024-02-24T12:31:26.125Z,10.52
2024-02-24T12:33:56.171Z,16.17
2024-02-24T12:36:27.516Z,11.43
2024-02-24T12:38:56.525Z,4.32
2024-02-24T12:41:27.833Z,5.95
2024-02-24T12:43:56.954Z,12.07
2024-02-24T12:46:34.718Z,6.93
2024-02-24T12:49:04.046Z,6.20
2024-02-24T12:51:31.905Z,103.72
2024-02-24T12:54:03.027Z,57.75
2024-02-24T12:56:32.911Z,62.75
2024-02-24T12:59:03.366Z,20.02
2024-02-24T13:01:34.650Z,10.77
2024-02-24T13:04:02.997Z,25.52
2024-02-24T13:06:31.014Z,13.50
2024-02-24T13:08:59.577Z,27.65
2024-02-24T13:11:28.919Z,59.22
2024-02-24T13:14:00.320Z,41.30
2024-02-24T13:16:28.572Z,83.50
2024-02-24T13:18:56.696Z,35.47
2024-02-24T13:21:25.693Z,45.70
2024-02-24T13:23:54.759Z,38.83
2024-02-24T13:26:24.461Z,36.67
2024-02-24T13:28:53.120Z,10.85
2024-02-24T13:31:23.140Z,9.63
2024-02-24T13:33:56.897Z,3.70
2024-02-24T13:36:26.349Z,4.25
2024-02-24T13:38:56.231Z,3.70
2024-02-24T13:41:24.467Z,3.35
2024-02-24T13:43:53.204Z,4.68
2024-02-24T13:46:21.069Z,3.20
2024-02-24T13:48:49.433Z,3.30
2024-02-24T13:51:17.344Z,3.13
2024-02-24T13:53:45.595Z,3.85
2024-02-24T13:56:13.725Z,4.53
2024-02-24T13:58:41.985Z,7.45
2024-02-24T14:01:12.499Z,8.60
2024-02-24T14:03:41.376Z,3.80
2024-02-24T14:06:09.566Z,5.57
2024-02-24T14:08:37.991Z,6.82
2024-02-24T14:11:08.001Z,6.47
2024-02-24T14:13:37.424Z,3.67
2024-02-24T14:16:05.708Z,4.97
2024-02-24T14:18:34.137Z,8.57
2024-02-24T14:21:02.356Z,9.93
2024-02-24T14:23:30.602Z,11.77
2024-02-24T14:26:02.680Z,9.98
2024-02-24T14:28:33.232Z,11.97
2024-02-24T14:31:01.144Z,11.18
2024-02-24T14:33:29.450Z,7.03
2024-02-24T14:35:57.645Z,11.45
2024-02-24T14:38:25.960Z,13.95
2024-02-24T14:40:56.115Z,10.60
2024-02-24T14:43:24.358Z,14.65
2024-02-24T14:45:52.071Z,10.70
2024-02-24T14:48:20.195Z,13.25
2024-02-24T14:50:49.303Z,13.48
2024-02-24T14:53:17.384Z,14.20
2024-02-24T14:55:45.350Z,15.10
2024-02-24T14:58:14.057Z,12.35
2024-02-24T15:00:42.187Z,28.75
2024-02-24T15:03:11.629Z,27.38
2024-02-24T15:05:40.327Z,19.67
2024-02-24T15:08:08.492Z,109.82
2024-02-24T15:10:36.729Z,25.92
2024-02-24T15:13:05.525Z,21.63
2024-02-24T15:15:33.699Z,40.25
2024-02-24T15:18:04.820Z,21.37
2024-02-24T15:20:33.266Z,12.75
2024-02-24T15:23:01.465Z,12.85
2024-02-24T15:25:34.253Z,13.80
2024-02-24T15:28:28.021Z,36.45
2024-02-24T15:30:55.904Z,222.20
2024-02-24T15:33:24.158Z,26.90
2024-02-24T15:35:52.070Z,11.13
2024-02-24T15:38:20.760Z,11.13
2024-02-24T15:40:48.817Z,26.23
2024-02-24T15:43:17.314Z,13.40
2024-02-24T15:45:45.295Z,16.05
2024-02-24T15:48:13.888Z,14.68
2024-02-24T15:50:42.724Z,10.25
2024-02-24T15:53:14.883Z,32.17
2024-02-24T15:55:47.189Z,26.27
2024-02-24T15:58:15.971Z,17.33
2024-02-24T16:00:47.211Z,13.15
2024-02-24T16:03:19.782Z,20.35
2024-02-24T16:05:50.673Z,21.25
2024-02-24T16:08:25.198Z,15.30
2024-02-24T16:10:56.411Z,20.48
2024-02-24T16:13:28.015Z,19.08
2024-02-24T16:16:00.435Z,14.70
2024-02-24T16:18:30.100Z,13.45
2024-02-24T16:20:58.253Z,11.87
2024-02-24T16:23:34.986Z,150.13
2024-02-24T16:26:06.143Z,35.72
2024-02-24T16:28:40.082Z,25.05
2024-02-24T16:31:10.888Z,40.47
2024-02-24T16:33:39.721Z,33.30
2024-02-24T16:36:09.163Z,12.85
2024-02-24T16:38:37.553Z,13.75
2024-02-24T16:41:05.669Z,18.33
2024-02-24T16:43:36.827Z,29.92
2024-02-24T16:46:18.641Z,31.83
2024-02-24T16:48:54.730Z,32.25
2024-02-24T16:51:23.278Z,36.80
2024-02-24T16:53:51.392Z,44.13
2024-02-24T16:56:19.281Z,88.65
2024-02-24T16:58:48.452Z,87.87
2024-02-24T17:01:20.344Z,54.13
2024-02-24T17:03:48.761Z,123.15
2024-02-24T17:06:17.042Z,79.95
2024-02-24T17:08:46.539Z,73.25
2024-02-24T17:11:21.885Z,47.93
2024-02-24T17:13:50.924Z,39.45
2024-02-24T17:16:18.579Z,30.35
2024-02-24T17:18:47.392Z,32.13
2024-02-24T17:21:15.778Z,25.13
2024-02-24T17:23:45.828Z,23.63
2024-02-24T17:26:18.293Z,19.95
2024-02-24T17:28:49.658Z,19.48
2024-02-24T17:31:17.834Z,19.00
2024-02-24T17:33:49.031Z,17.95
2024-02-24T17:36:26.149Z,17.13
2024-02-24T17:39:02.854Z,13.68
2024-02-24T17:41:39.922Z,15.93
2024-02-24T17:44:19.262Z,17.40
2024-02-24T17:46:50.149Z,14.23
2024-02-24T17:49:26.449Z,17.53
2024-02-24T17:55:03.382Z,24.27
2024-02-24T17:57:35.486Z,31.33
2024-02-24T18:00:15.230Z,39.70
2024-02-24T18:02:47.121Z,102.07
2024-02-24T18:05:19.534Z,34.65
2024-02-24T18:07:51.930Z,20.27
2024-02-24T18:10:22.768Z,16.10
2024-02-24T18:12:55.877Z,25.65
2024-02-24T18:15:25.310Z,41.30
2024-02-24T18:17:55.404Z,38.03
2024-02-24T18:20:23.900Z,42.00
2024-02-24T18:22:51.536Z,18.88
2024-02-24T18:25:19.601Z,13.20
2024-02-24T18:27:48.150Z,31.97
2024-02-24T18:30:16.405Z,32.47
2024-02-24T18:32:44.378Z,29.55
2024-02-24T18:35:13.052Z,27.40
2024-02-24T18:37:45.142Z,25.17
2024-02-24T18:40:18.560Z,30.60
2024-02-24T18:42:48.244Z,29.73
2024-02-24T18:45:18.517Z,25.90
2024-02-24T18:47:46.331Z,24.75
2024-02-24T18:50:14.730Z,18.00
2024-02-24T18:52:45.011Z,19.07
2024-02-24T18:55:13.082Z,18.95
2024-02-24T18:57:41.162Z,15.32
2024-02-24T19:00:12.512Z,16.48
2024-02-24T19:02:44.039Z,19.85
2024-02-24T19:05:19.654Z,14.50
2024-02-24T19:07:51.801Z,16.45
2024-02-24T19:10:20.022Z,18.30
2024-02-24T19:12:48.718Z,27.05
2024-02-24T19:15:17.065Z,22.20
2024-02-24T19:17:44.919Z,11.67
2024-02-24T19:20:12.987Z,14.52
2024-02-24T19:22:40.551Z,12.98
2024-02-24T19:25:09.443Z,53.58
2024-02-24T19:27:38.076Z,73.93
2024-02-24T19:30:08.688Z,52.92
2024-02-24T19:32:44.971Z,36.78
2024-02-24T19:35:19.074Z,28.65
2024-02-24T19:37:48.259Z,26.20
2024-02-24T19:40:16.805Z,23.65
2024-02-24T19:42:46.397Z,26.00
2024-02-24T19:45:17.632Z,24.83
2024-02-24T19:47:48.349Z,27.55
2024-02-24T19:50:19.240Z,30.48
2024-02-24T19:52:51.065Z,23.67
2024-02-24T19:55:22.807Z,25.33
2024-02-24T19:57:53.765Z,25.40
2024-02-24T20:00:25.585Z,26.67
2024-02-24T20:02:54.388Z,31.73
2024-02-24T20:05:23.163Z,27.63
2024-02-24T20:07:56.702Z,27.27
2024-02-24T20:10:30.687Z,18.92
2024-02-24T20:12:58.961Z,20.92
2024-02-24T20:15:27.020Z,13.68
2024-02-24T20:17:55.574Z,11.40
2024-02-24T20:20:24.854Z,12.13
2024-02-24T20:22:52.772Z,14.88
2024-02-24T20:25:20.772Z,13.77
2024-02-24T20:27:48.474Z,15.50
2024-02-24T20:30:20.723Z,13.98
2024-02-24T20:32:53.617Z,21.02
2024-02-24T20:35:24.284Z,19.98
2024-02-24T20:37:52.395Z,17.88
2024-02-24T20:40:20.722Z,16.83
2024-02-24T20:42:48.552Z,13.25
2024-02-24T20:45:16.913Z,9.30
2024-02-24T20:47:44.882Z,10.77
2024-02-24T20:50:13.374Z,10.65
2024-02-24T20:52:41.621Z,15.63
2024-02-24T20:55:09.678Z,28.88
2024-02-24T20:57:39.170Z,25.97
2024-02-24T21:00:08.344Z,24.45
2024-02-24T21:02:37.908Z,30.60
2024-02-24T21:05:08.317Z,22.00
2024-02-24T21:07:36.785Z,26.00
2024-02-24T21:10:04.893Z,27.07
2024-02-24T21:12:32.993Z,22.08
2024-02-24T21:15:01.188Z,21.95
2024-02-24T21:17:29.018Z,23.35
2024-02-24T21:20:06.428Z,22.48
2024-02-24T21:22:35.477Z,28.47
2024-02-24T21:25:07.277Z,24.73
2024-02-24T21:27:34.978Z,30.98
2024-02-24T21:30:04.455Z,21.65
2024-02-24T21:32:33.453Z,20.67
2024-02-24T21:35:01.374Z,17.63
2024-02-24T21:37:29.542Z,20.13
2024-02-24T21:39:57.782Z,19.75
2024-02-24T21:42:26.820Z,19.90
2024-02-24T21:44:57.437Z,19.83
2024-02-24T21:47:26.028Z,22.10
2024-02-24T21:49:54.448Z,26.30
2024-02-24T21:52:22.041Z,26.52
2024-02-24T21:54:50.180Z,23.42
2024-02-24T21:57:18.025Z,33.47
2024-02-24T21:59:45.925Z,49.20
2024-02-24T22:02:14.363Z,28.80
2024-02-24T22:04:42.331Z,27.20
2024-02-24T22:07:10.087Z,33.65
2024-02-24T22:09:38.383Z,31.63
2024-02-24T22:12:06.503Z,36.80
2024-02-24T22:14:34.612Z,32.88
2024-02-24T22:17:02.448Z,66.55
2024-02-24T22:19:32.988Z,49.20
2024-02-24T22:22:00.900Z,44.22
2024-02-24T22:24:28.942Z,41.77
2024-02-24T22:26:57.010Z,52.67
2024-02-24T22:29:25.271Z,43.10
2024-02-24T22:31:53.114Z,31.08
2024-02-24T22:34:21.606Z,25.88
2024-02-24T22:36:53.201Z,24.40
2024-02-24T22:39:21.343Z,27.27
2024-02-24T22:41:49.137Z,32.65
2024-02-24T22:44:17.534Z,28.15
2024-02-24T22:46:45.207Z,33.97
2024-02-24T22:49:13.511Z,39.47
2024-02-24T22:51:42.120Z,44.55
2024-02-24T22:54:10.369Z,38.30
2024-02-24T22:56:38.140Z,30.00
2024-02-24T22:59:06.338Z,24.02
2024-02-24T23:01:34.158Z,25.05
2024-02-24T23:04:02.779Z,23.83
2024-02-24T23:06:31.278Z,23.77
2024-02-24T23:08:59.950Z,24.40
2024-02-24T23:11:33.244Z,22.13
2024-02-24T23:14:10.442Z,15.30
2024-02-24T23:16:38.801Z,15.73
2024-02-24T23:19:07.002Z,12.35
2024-02-24T23:21:36.950Z,14.20
2024-02-24T23:24:05.382Z,16.08
2024-02-24T23:26:33.516Z,13.97
2024-02-24T23:29:04.568Z,15.07
2024-02-24T23:31:32.502Z,15.48
2024-02-24T23:34:01.717Z,22.40
2024-02-24T23:36:29.762Z,18.33
2024-02-24T23:38:58.227Z,19.17
2024-02-24T23:41:26.910Z,20.73
2024-02-24T23:43:55.102Z,19.58
2024-02-24T23:46:22.962Z,26.15
2024-02-24T23:48:51.270Z,27.80
2024-02-24T23:51:19.126Z,24.33
2024-02-24T23:53:47.260Z,25.95
2024-02-24T23:56:25.273Z,25.13
2024-02-24T23:58:53.594Z,19.75
